createdAt,value
2023-02-24T00:01:24.815Z,4.70
2023-02-24T00:03:56.845Z,4.60
2023-02-24T00:06:35.996Z,4.50
2023-02-24T00:09:10.206Z,4.60
2023-02-24T00:11:38.729Z,4.70
2023-02-24T00:14:09.367Z,4.70
2023-02-24T00:16:37.700Z,4.70
2023-02-24T00:19:07.411Z,4.50
2023-02-24T00:21:34.950Z,4.40
2023-02-24T00:24:02.017Z,4.40
2023-02-24T00:26:30.158Z,4.50
2023-02-24T00:29:00.152Z,4.50
2023-02-24T00:31:30.308Z,4.50
2023-02-24T00:33:57.932Z,4.50
2023-02-24T00:36:24.976Z,4.40
2023-02-24T00:38:55.588Z,4.50
2023-02-24T00:41:23.344Z,4.50
2023-02-24T00:43:50.298Z,4.50
2023-02-24T00:46:20.836Z,4.60
2023-02-24T00:48:48.598Z,4.50
2023-02-24T00:51:17.382Z,4.40
2023-02-24T00:53:44.490Z,4.50
2023-02-24T00:56:16.219Z,4.40
2023-02-24T00:58:44.778Z,4.30
2023-02-24T01:01:13.757Z,4.30
2023-02-24T01:03:41.183Z,4.40
2023-02-24T01:06:07.961Z,4.40
2023-02-24T01:08:38.495Z,4.40
2023-02-24T01:11:23.947Z,4.40
2023-02-24T01:13:51.172Z,4.50
2023-02-24T01:16:20.728Z,4.40
2023-02-24T01:18:49.514Z,4.30
2023-02-24T01:21:17.972Z,4.30
2023-02-24T01:23:47.376Z,4.30
2023-02-24T01:26:14.218Z,4.30
2023-02-24T01:28:40.857Z,4.30
2023-02-24T01:31:09.727Z,4.20
2023-02-24T01:33:37.336Z,4.00
2023-02-24T01:36:12.341Z,4.00
2023-02-24T01:38:42.178Z,4.10
2023-02-24T01:41:10.344Z,4.20
2023-02-24T01:44:13.980Z,4.30
2023-02-24T01:46:42.062Z,4.30
2023-02-24T01:49:12.494Z,4.40
2023-02-24T01:51:42.235Z,4.40
2023-02-24T01:54:11.014Z,4.40
2023-02-24T01:56:41.275Z,4.40
2023-02-24T01:59:09.248Z,4.40
2023-02-24T02:01:40.759Z,4.40
2023-02-24T02:04:11.993Z,4.50
2023-02-24T02:06:39.744Z,4.40
2023-02-24T02:09:08.013Z,4.40
2023-02-24T02:11:34.660Z,4.40
2023-02-24T02:14:01.718Z,4.40
2023-02-24T02:16:41.452Z,4.40
2023-02-24T02:19:24.557Z,4.30
2023-02-24T02:21:51.514Z,4.40
2023-02-24T02:24:27.643Z,4.50
2023-02-24T02:26:54.215Z,4.50
2023-02-24T02:29:27.149Z,4.50
2023-02-24T02:32:12.331Z,4.60
2023-02-24T02:35:06.434Z,4.60
2023-02-24T02:37:37.271Z,4.50
2023-02-24T02:40:21.031Z,4.50
2023-02-24T02:42:54.055Z,4.60
2023-02-24T02:45:23.774Z,4.60
2023-02-24T02:47:54.511Z,4.70
2023-02-24T02:50:27.365Z,4.60
2023-02-24T02:52:57.251Z,4.60
2023-02-24T02:55:37.907Z,4.50
2023-02-24T02:58:09.161Z,4.50
2023-02-24T03:00:58.721Z,4.40
2023-02-24T03:03:27.933Z,4.50
2023-02-24T03:05:57.221Z,4.40
2023-02-24T03:08:26.851Z,4.50
2023-02-24T03:10:54.105Z,4.40
2023-02-24T03:13:25.765Z,4.30
2023-02-24T03:15:53.619Z,4.20
2023-02-24T03:18:40.664Z,4.20
2023-02-24T03:21:09.772Z,4.20
2023-02-24T03:23:40.044Z,4.20
2023-02-24T03:26:21.918Z,4.20
2023-02-24T03:28:53.480Z,4.20
2023-02-24T03:31:27.796Z,4.20
2023-02-24T03:34:01.070Z,4.20
2023-02-24T03:36:28.633Z,4.10
2023-02-24T03:38:58.287Z,4.10
2023-02-24T03:41:31.456Z,4.00
2023-02-24T03:43:59.219Z,3.90
2023-02-24T03:46:26.118Z,3.90
2023-02-24T03:48:57.694Z,3.90
2023-02-24T03:51:24.421Z,3.90
2023-02-24T03:54:09.758Z,3.90
2023-02-24T03:56:40.473Z,4.00
2023-02-24T03:59:07.080Z,4.00
2023-02-24T04:01:41.981Z,4.10
2023-02-24T04:04:08.643Z,4.10
2023-02-24T04:06:44.427Z,4.10
2023-02-24T04:09:22.763Z,4.10
2023-02-24T04:11:58.067Z,4.10
2023-02-24T04:14:29.561Z,4.00
2023-02-24T04:17:01.200Z,4.00
2023-02-24T04:19:29.742Z,3.90
2023-02-24T04:21:57.240Z,3.90
2023-02-24T04:24:27.634Z,3.80
2023-02-24T04:26:58.875Z,3.80
2023-02-24T04:29:28.459Z,3.70
2023-02-24T04:31:59.047Z,3.70
2023-02-24T04:34:26.442Z,3.70
2023-02-24T04:36:54.210Z,3.80
2023-02-24T04:39:21.005Z,3.70
2023-02-24T04:41:50.311Z,3.70
2023-02-24T04:44:21.110Z,3.70
2023-02-24T04:46:49.712Z,3.60
2023-02-24T04:49:17.989Z,3.60
2023-02-24T04:51:45.222Z,3.50
2023-02-24T04:54:15.687Z,3.50
2023-02-24T04:56:42.373Z,3.40
2023-02-24T04:59:10.328Z,3.40
2023-02-24T05:01:39.862Z,3.50
2023-02-24T05:04:07.155Z,3.40
2023-02-24T05:06:34.069Z,3.30
2023-02-24T05:09:01.577Z,3.30
2023-02-24T05:11:34.848Z,3.30
2023-02-24T05:14:04.549Z,3.30
2023-02-24T05:16:31.928Z,3.30
2023-02-24T05:19:18.845Z,3.20
2023-02-24T05:21:45.434Z,3.10
2023-02-24T05:24:12.106Z,3.10
2023-02-24T05:26:41.650Z,3.10
2023-02-24T05:29:08.873Z,3.00
2023-02-24T05:31:36.458Z,3.00
2023-02-24T05:34:05.021Z,3.00
2023-02-24T05:36:33.883Z,3.00
2023-02-24T05:39:12.171Z,2.90
2023-02-24T05:41:41.850Z,2.90
2023-02-24T05:44:11.421Z,2.90
2023-02-24T05:46:39.696Z,2.90
2023-02-24T05:49:10.527Z,2.90
2023-02-24T05:51:38.923Z,2.90
2023-02-24T05:54:06.785Z,2.80
2023-02-24T05:56:38.676Z,2.80
2023-02-24T05:59:07.894Z,2.70
2023-02-24T06:01:36.208Z,2.70
2023-02-24T06:04:06.831Z,2.70
2023-02-24T06:06:40.914Z,2.70
2023-02-24T06:09:12.665Z,2.70
2023-02-24T06:11:40.718Z,2.80
2023-02-24T06:14:08.067Z,2.80
2023-02-24T06:16:35.640Z,2.80
2023-02-24T06:19:02.838Z,2.70
2023-02-24T06:21:30.006Z,2.70
2023-02-24T06:23:57.533Z,2.70
2023-02-24T06:26:25.045Z,2.70
2023-02-24T06:28:54.746Z,2.70
2023-02-24T06:31:21.815Z,2.80
2023-02-24T06:33:48.593Z,2.90
2023-02-24T06:36:15.184Z,2.90
2023-02-24T06:38:41.841Z,3.00
2023-02-24T06:41:11.399Z,3.10
2023-02-24T06:43:38.724Z,3.20
2023-02-24T06:46:06.335Z,3.20
2023-02-24T06:48:37.963Z,3.30
2023-02-24T06:51:06.092Z,3.30
2023-02-24T06:53:35.839Z,3.40
2023-02-24T06:56:20.739Z,3.40
2023-02-24T06:58:48.659Z,3.50
2023-02-24T07:01:16.766Z,3.50
2023-02-24T07:04:19.295Z,3.60
2023-02-24T07:06:52.219Z,3.60
2023-02-24T07:09:23.933Z,3.70
2023-02-24T07:11:52.501Z,3.70
2023-02-24T07:14:20.552Z,3.70
2023-02-24T07:16:47.463Z,3.70
2023-02-24T07:19:15.582Z,3.80
2023-02-24T07:21:59.820Z,3.90
2023-02-24T07:24:33.185Z,4.00
2023-02-24T07:27:01.359Z,4.10
2023-02-24T07:29:29.529Z,4.20
2023-02-24T07:31:58.570Z,4.40
2023-02-24T07:34:25.380Z,4.50
2023-02-24T07:36:52.723Z,4.70
2023-02-24T07:39:19.709Z,4.70
2023-02-24T07:41:49.490Z,4.80
2023-02-24T07:44:17.926Z,4.80
2023-02-24T07:46:45.131Z,4.90
2023-02-24T07:49:13.416Z,5.00
2023-02-24T07:51:40.240Z,5.10
2023-02-24T07:54:08.742Z,5.30
2023-02-24T07:56:45.899Z,5.30
2023-02-24T07:59:16.074Z,5.50
2023-02-24T08:01:49.884Z,5.50
2023-02-24T08:04:20.440Z,5.50
2023-02-24T08:06:50.297Z,5.50
2023-02-24T08:09:19.038Z,5.60
2023-02-24T08:11:47.380Z,5.60
2023-02-24T08:14:14.152Z,5.60
2023-02-24T08:16:44.492Z,5.70
2023-02-24T08:19:13.270Z,5.80
2023-02-24T08:21:41.543Z,5.80
2023-02-24T08:24:17.706Z,5.90
2023-02-24T08:27:03.739Z,5.90
2023-02-24T08:29:40.520Z,6.00
2023-02-24T08:32:09.460Z,6.10
2023-02-24T08:34:36.693Z,6.20
2023-02-24T08:37:03.784Z,6.40
2023-02-24T08:39:34.048Z,6.50
2023-02-24T08:42:00.647Z,6.50
2023-02-24T08:44:27.460Z,6.80
2023-02-24T08:46:54.927Z,6.80
2023-02-24T08:49:24.896Z,6.80
2023-02-24T08:51:52.940Z,6.80
2023-02-24T08:54:27.145Z,6.80
2023-02-24T08:56:58.026Z,6.80
2023-02-24T08:59:38.446Z,6.90
2023-02-24T09:02:19.197Z,6.90
2023-02-24T09:04:46.732Z,7.00
2023-02-24T09:07:17.501Z,7.10
2023-02-24T09:09:44.472Z,7.20
2023-02-24T09:12:21.964Z,7.30
2023-02-24T09:14:50.072Z,7.40
2023-02-24T09:17:20.769Z,7.50
2023-02-24T09:19:51.493Z,7.60
2023-02-24T09:22:31.560Z,7.70
2023-02-24T09:25:18.120Z,7.90
2023-02-24T09:28:07.891Z,8.00
2023-02-24T09:30:53.265Z,8.20
2023-02-24T09:33:39.089Z,8.30
2023-02-24T09:36:10.244Z,8.40
2023-02-24T09:38:56.940Z,8.50
2023-02-24T09:41:44.965Z,8.60
2023-02-24T09:44:18.225Z,8.70
2023-02-24T09:46:54.114Z,8.70
2023-02-24T09:49:23.939Z,8.70
2023-02-24T09:52:00.346Z,8.80
2023-02-24T09:54:33.612Z,8.80
2023-02-24T09:57:09.511Z,9.00
2023-02-24T09:59:50.938Z,9.10
2023-02-24T10:02:28.243Z,9.30
2023-02-24T10:05:07.285Z,9.40
2023-02-24T10:07:38.604Z,9.40
2023-02-24T10:10:20.154Z,9.30
2023-02-24T10:12:49.135Z,9.30
2023-02-24T10:15:41.228Z,9.40
2023-02-24T10:18:37.013Z,9.40
2023-02-24T10:21:30.400Z,9.50
2023-02-24T10:24:02.322Z,9.60
2023-02-24T10:26:32.787Z,9.60
2023-02-24T10:29:08.972Z,9.70
2023-02-24T10:31:45.922Z,9.70
2023-02-24T10:34:20.246Z,9.80
2023-02-24T10:36:50.333Z,9.90
2023-02-24T10:39:25.748Z,9.90
2023-02-24T10:42:15.573Z,9.90
2023-02-24T10:45:01.459Z,9.90
2023-02-24T10:47:33.168Z,10.00
2023-02-24T10:50:00.859Z,10.10
2023-02-24T10:52:37.238Z,10.10
2023-02-24T10:55:08.500Z,10.10
2023-02-24T10:58:05.901Z,10.20
2023-02-24T11:01:13.070Z,10.40
2023-02-24T11:03:46.470Z,10.50
2023-02-24T11:06:41.805Z,10.60
2023-02-24T11:09:29.665Z,10.70
2023-02-24T11:12:15.526Z,10.90
2023-02-24T11:15:14.380Z,11.00
2023-02-24T11:17:50.906Z,11.10
2023-02-24T11:20:36.333Z,11.10
2023-02-24T11:23:14.925Z,11.20
2023-02-24T11:26:01.915Z,11.20
2023-02-24T11:28:40.761Z,11.20
2023-02-24T11:31:28.131Z,11.30
2023-02-24T11:34:00.621Z,11.40
2023-02-24T11:36:30.456Z,11.40
2023-02-24T11:39:18.962Z,11.40
2023-02-24T11:41:53.225Z,11.40
2023-02-24T11:44:38.688Z,11.50
2023-02-24T11:47:07.844Z,11.60
2023-02-24T11:49:34.393Z,11.70
2023-02-24T11:52:03.949Z,11.80
2023-02-24T11:54:35.356Z,11.80
2023-02-24T11:57:03.916Z,11.90
2023-02-24T11:59:38.249Z,11.90
2023-02-24T12:02:05.614Z,11.90
2023-02-24T12:04:34.744Z,11.90
2023-02-24T12:07:14.230Z,11.90
2023-02-24T12:09:46.577Z,12.10
2023-02-24T12:12:17.429Z,12.10
2023-02-24T12:14:51.720Z,12.10
2023-02-24T12:17:35.961Z,12.10
2023-02-24T12:20:07.304Z,12.20
2023-02-24T12:22:46.051Z,12.10
2023-02-24T12:25:14.982Z,12.00
2023-02-24T12:27:49.131Z,12.00
2023-02-24T12:30:33.917Z,12.10
2023-02-24T12:33:01.212Z,12.20
2023-02-24T12:36:03.493Z,12.20
2023-02-24T12:38:41.292Z,12.20
2023-02-24T12:41:09.145Z,12.20
2023-02-24T12:43:38.719Z,12.20
2023-02-24T12:46:13.827Z,12.20
2023-02-24T12:48:43.557Z,12.20
2023-02-24T12:51:14.298Z,12.20
2023-02-24T12:53:43.970Z,12.20
2023-02-24T12:56:19.835Z,12.20
2023-02-24T12:58:49.224Z,12.30
2023-02-24T13:01:26.896Z,12.40
2023-02-24T13:04:12.391Z,12.30
2023-02-24T13:06:42.060Z,12.40
2023-02-24T13:09:26.587Z,12.30
2023-02-24T13:11:59.284Z,12.20
2023-02-24T13:14:31.804Z,12.20
2023-02-24T13:17:05.067Z,12.10
2023-02-24T13:19:32.047Z,12.20
2023-02-24T13:22:04.982Z,12.20
2023-02-24T13:24:31.648Z,12.20
2023-02-24T13:27:19.986Z,12.20
2023-02-24T13:29:48.008Z,12.10
2023-02-24T13:32:23.919Z,12.20
2023-02-24T13:34:51.757Z,12.20
2023-02-24T13:37:34.417Z,12.20
2023-02-24T13:40:12.202Z,12.30
2023-02-24T13:42:38.807Z,12.30
2023-02-24T13:45:13.309Z,12.20
2023-02-24T13:47:52.320Z,12.20
2023-02-24T13:50:37.473Z,12.20
2023-02-24T13:59:24.615Z,12.30
2023-02-24T14:01:57.024Z,12.20
2023-02-24T14:04:29.473Z,12.30
2023-02-24T14:07:34.672Z,12.30
2023-02-24T14:11:37.844Z,12.20
2023-02-24T14:19:55.543Z,12.20
2023-02-24T14:22:24.256Z,12.20
2023-02-24T14:25:01.844Z,12.20
2023-02-24T14:27:30.289Z,12.20
2023-02-24T14:30:01.160Z,12.20
2023-02-24T14:32:30.006Z,12.20
2023-02-24T14:34:58.630Z,12.10
2023-02-24T14:37:29.722Z,12.00
2023-02-24T14:39:59.022Z,12.00
2023-02-24T14:42:28.631Z,12.00
2023-02-24T14:44:57.946Z,12.00
2023-02-24T14:47:26.544Z,12.00
2023-02-24T14:49:53.238Z,12.00
2023-02-24T14:52:23.005Z,11.80
2023-02-24T14:54:50.766Z,11.80
2023-02-24T14:57:20.375Z,11.70
2023-02-24T14:59:50.817Z,11.70
2023-02-24T15:02:30.701Z,11.60
2023-02-24T15:04:57.943Z,11.60
2023-02-24T15:07:34.870Z,11.60
2023-02-24T15:10:05.091Z,11.60
2023-02-24T15:12:34.730Z,11.60
2023-02-24T15:15:04.648Z,11.60
2023-02-24T15:17:31.629Z,11.60
2023-02-24T15:19:59.417Z,11.50
2023-02-24T15:22:27.698Z,11.50
2023-02-24T15:24:55.994Z,11.50
2023-02-24T15:27:24.378Z,11.40
2023-02-24T15:30:02.233Z,11.40
2023-02-24T15:32:31.053Z,11.40
2023-02-24T15:34:57.931Z,11.30
2023-02-24T15:37:42.129Z,11.20
2023-02-24T15:40:27.424Z,11.20
2023-02-24T15:42:57.226Z,11.20
2023-02-24T15:45:34.506Z,11.30
2023-02-24T15:48:02.298Z,11.30
2023-02-24T15:50:29.676Z,11.30
2023-02-24T15:52:57.521Z,11.30
2023-02-24T15:55:24.392Z,11.30
2023-02-24T15:57:58.765Z,11.30
2023-02-24T16:00:25.488Z,11.30
2023-02-24T16:02:52.173Z,11.30
2023-02-24T16:05:18.810Z,11.20
2023-02-24T16:07:46.163Z,11.10
2023-02-24T16:10:20.115Z,11.10
2023-02-24T16:12:51.767Z,11.00
2023-02-24T16:15:32.123Z,10.90
2023-02-24T16:17:59.120Z,10.90
2023-02-24T16:20:31.337Z,10.90
2023-02-24T16:22:59.181Z,10.90
2023-02-24T16:25:26.526Z,10.80
2023-02-24T16:27:57.391Z,10.80
2023-02-24T16:30:25.783Z,10.70
2023-02-24T16:32:52.785Z,10.70
2023-02-24T16:35:19.619Z,10.60
2023-02-24T16:37:47.281Z,10.60
2023-02-24T16:40:26.342Z,10.50
2023-02-24T16:42:53.048Z,10.50
2023-02-24T16:45:20.485Z,10.40
2023-02-24T16:47:50.046Z,10.40
2023-02-24T16:50:24.248Z,10.30
2023-02-24T16:52:50.938Z,10.30
2023-02-24T16:55:18.112Z,10.20
2023-02-24T16:57:44.763Z,10.20
2023-02-24T17:00:12.897Z,10.20
2023-02-24T17:02:40.260Z,10.10
2023-02-24T17:05:07.322Z,10.10
2023-02-24T17:07:39.249Z,10.00
2023-02-24T17:10:06.373Z,10.00
2023-02-24T17:12:32.996Z,10.00
2023-02-24T17:14:59.637Z,9.90
2023-02-24T17:17:26.242Z,9.90
2023-02-24T17:19:52.915Z,9.90
2023-02-24T17:22:19.523Z,9.80
2023-02-24T17:24:46.130Z,9.70
2023-02-24T17:27:12.868Z,9.70
2023-02-24T17:29:39.772Z,9.70
2023-02-24T17:32:06.636Z,9.60
2023-02-24T17:34:33.359Z,9.60
2023-02-24T17:36:59.971Z,9.60
2023-02-24T17:39:26.720Z,9.60
2023-02-24T17:41:53.371Z,9.50
2023-02-24T17:44:19.954Z,9.50
2023-02-24T17:46:46.891Z,9.50
2023-02-24T17:49:13.599Z,9.50
2023-02-24T17:51:40.329Z,9.50
2023-02-24T17:54:08.403Z,9.50
2023-02-24T17:56:35.150Z,9.50
2023-02-24T17:59:01.826Z,9.40
2023-02-24T18:01:28.660Z,9.40
2023-02-24T18:03:58.299Z,9.40
2023-02-24T18:06:25.143Z,9.40
2023-02-24T18:08:51.850Z,9.40
2023-02-24T18:11:19.189Z,9.40
2023-02-24T18:14:00.874Z,9.40
2023-02-24T18:16:27.960Z,9.40
2023-02-24T18:18:54.576Z,9.30
2023-02-24T18:21:21.714Z,9.20
2023-02-24T18:23:49.661Z,9.20
2023-02-24T18:26:17.859Z,9.20
2023-02-24T18:28:44.553Z,9.20
2023-02-24T18:31:14.864Z,9.20
2023-02-24T18:33:44.616Z,9.20
2023-02-24T18:41:43.563Z,9.40
2023-02-24T18:47:26.850Z,9.70
2023-02-24T18:53:12.258Z,9.60
2023-02-24T18:59:11.308Z,9.30
2023-02-24T19:01:39.261Z,9.20
2023-02-24T19:17:29.874Z,9.00
2023-02-24T19:19:56.610Z,8.80
2023-02-24T19:23:09.238Z,8.70
2023-02-24T19:32:53.129Z,8.50
2023-02-24T19:35:19.828Z,8.40
2023-02-24T19:37:49.538Z,8.40
2023-02-24T19:40:16.199Z,8.30
2023-02-24T19:42:46.370Z,8.30
2023-02-24T19:48:11.125Z,8.30
2023-02-24T19:50:41.123Z,8.30
2023-02-24T19:53:08.453Z,8.40
2023-02-24T19:55:44.587Z,8.40
2023-02-24T19:58:11.273Z,8.40
2023-02-24T20:00:38.007Z,8.40
2023-02-24T20:03:10.948Z,8.40
2023-02-24T20:05:48.777Z,8.30
2023-02-24T20:08:35.884Z,8.30
2023-02-24T20:14:32.124Z,8.30
2023-02-24T20:16:58.902Z,8.40
2023-02-24T20:19:25.778Z,8.30
2023-02-24T20:21:52.547Z,8.40
2023-02-24T20:24:19.364Z,8.40
2023-02-24T20:26:51.021Z,8.30
2023-02-24T20:29:18.468Z,8.30
2023-02-24T20:31:46.428Z,8.30
2023-02-24T20:34:17.757Z,8.30
2023-02-24T20:36:47.012Z,8.30
2023-02-24T20:39:15.591Z,8.30
2023-02-24T20:41:45.552Z,8.30
2023-02-24T20:44:12.900Z,8.30
2023-02-24T20:46:40.075Z,8.40
2023-02-24T20:56:19.752Z,8.60
2023-02-24T20:58:57.376Z,8.50
2023-02-24T21:01:24.175Z,8.50
2023-02-24T21:21:24.766Z,8.30
2023-02-24T21:30:19.637Z,8.30
2023-02-24T21:32:47.549Z,8.30
2023-02-24T21:35:15.312Z,8.30
2023-02-24T21:37:42.071Z,8.30
2023-02-24T21:40:17.695Z,8.20
2023-02-24T21:42:46.981Z,8.20
2023-02-24T21:45:14.111Z,8.20
2023-02-24T21:48:20.063Z,8.20
2023-02-24T21:50:56.569Z,8.20
2023-02-24T21:53:23.884Z,8.40
2023-02-24T21:56:21.698Z,8.50
2023-02-24T22:06:15.675Z,8.40
2023-02-24T22:08:00.040Z,8.40
2023-02-24T22:10:46.208Z,8.40
2023-02-24T22:13:19.223Z,8.40
2023-02-24T22:22:02.244Z,8.70
2023-02-24T22:24:32.367Z,8.90
2023-02-24T22:27:01.297Z,8.70
2023-02-24T22:29:28.003Z,8.40
2023-02-24T22:31:54.721Z,7.90
2023-02-24T22:34:21.513Z,7.70
2023-02-24T22:36:49.448Z,7.60
2023-02-24T22:39:17.018Z,7.50
2023-02-24T22:41:44.528Z,7.40
2023-02-24T22:44:11.152Z,7.30
2023-02-24T22:46:38.916Z,7.10
2023-02-24T22:49:06.010Z,7.00
2023-02-24T22:51:36.481Z,6.90
2023-02-24T22:54:05.633Z,6.80
2023-02-24T22:56:40.954Z,6.80
2023-02-24T22:59:07.680Z,6.80
2023-02-24T23:01:41.571Z,6.60
2023-02-24T23:04:11.127Z,6.60
2023-02-24T23:06:37.793Z,6.50
2023-02-24T23:09:07.869Z,6.40
2023-02-24T23:11:36.867Z,6.50
2023-02-24T23:14:05.968Z,6.60
2023-02-24T23:16:34.244Z,6.60
2023-02-24T23:19:04.239Z,6.70
2023-02-24T23:21:38.908Z,6.60
2023-02-24T23:24:06.176Z,6.70
2023-02-24T23:26:33.812Z,6.60
2023-02-24T23:29:00.744Z,6.40
2023-02-24T23:31:27.524Z,6.40
2023-02-24T23:33:55.049Z,6.20
2023-02-24T23:36:22.578Z,6.20
2023-02-24T23:38:49.732Z,6.40
2023-02-24T23:41:16.812Z,6.20
2023-02-24T23:43:43.465Z,6.00
2023-02-24T23:46:11.671Z,5.90
2023-02-24T23:48:38.453Z,6.00
2023-02-24T23:51:07.060Z,6.10
2023-02-24T23:53:37.849Z,5.80
2023-02-24T23:56:10.702Z,5.90
2023-02-24T23:58:37.409Z,6.00
